| time (UTC) | temp C | wind direction | speed KPH | gust KPH | rain 1hr cm | rain 24hr cm | rain mn cm | humidity % | barometer mb |
| 20260507070051 | 10 | 107 | 0.0 | 0.0 | 0.00 | 0.84 | 0.00 | 1 | 1006.4 |
| 20260507064546 | 10 | 230 | 0.0 | 0.0 | 0.00 | 0.84 | 0.00 | 1 | 1006.2 |
| 20260507063036 | 11 | 250 | 0.0 | 1.6 | 0.00 | 0.84 | 0.00 | 1 | 1006.3 |
| 20260507061529 | 11 | 282 | 0.0 | 0.0 | 0.00 | 0.84 | 0.00 | 1 | 1006.4 |
| 20260507060024 | 11 | 256 | 0.0 | 0.0 | 0.00 | 0.84 | 0.00 | 1 | 1006.4 |
| 20260507054519 | 11 | 247 | 0.0 | 0.0 | 0.00 | 0.84 | 0.00 | 1 | 1006.3 |
| 20260507053014 | 11 | 264 | 0.0 | 0.0 | 0.00 | 0.84 | 0.00 | 1 | 1006.3 |
| 20260507051514 | 11 | 347 | 0.0 | 1.6 | 0.00 | 0.84 | 0.00 | 1 | 1005.9 |
| 20260507050015 | 12 | 236 | 0.0 | 0.0 | 0.00 | 0.84 | 0.00 | 1 | 1006.1 |
| 20260507044502 | 12 | 265 | 0.0 | 0.0 | 0.00 | 0.84 | 0.00 | 1 | 1006.3 |
| 20260507043057 | 12 | 239 | 0.0 | 0.0 | 0.00 | 0.84 | 0.00 | 1 | 1006.0 |
| 20260507041554 | 13 | 235 | 0.0 | 0.0 | 0.00 | 0.84 | 0.00 | 1 | 1005.9 |
| 20260507040049 | 13 | 77 | 0.0 | 0.0 | 0.00 | 0.84 | 0.84 | 1 | 1005.6 |
| 20260507034546 | 13 | 237 | 0.0 | 0.0 | 0.00 | 0.84 | 0.84 | 1 | 1005.3 |
| 20260507033050 | 14 | 255 | 0.0 | 1.6 | 0.00 | 0.84 | 0.84 | 1 | 1005.7 |
| 20260507031551 | 15 | 181 | 0.0 | 1.6 | 0.00 | 0.84 | 0.84 | 1 | 1005.5 |
| 20260507030033 | 15 | 258 | 0.0 | 0.0 | 0.00 | 0.84 | 0.84 | 1 | 1005.1 |
| 20260507024529 | 15 | 179 | 0.0 | 1.6 | 0.00 | 0.84 | 0.84 | 1 | 1004.8 |
| 20260507023026 | 15 | 239 | 0.0 | 4.8 | 0.00 | 0.84 | 0.84 | 1 | 1004.8 |
| 20260507021520 | 15 | 132 | 0.0 | 1.6 | 0.00 | 0.84 | 0.84 | 1 | 1004.7 |
| 20260507020022 | 15 | 231 | 0.0 | 0.0 | 0.00 | 0.84 | 0.84 | 1 | 1005.0 |
| 20260507014512 | 15 | 238 | 0.0 | 1.6 | 0.00 | 0.84 | 0.84 | 1 | 1005.1 |
| 20260507013008 | 15 | 249 | 0.0 | 1.6 | 0.00 | 0.84 | 0.84 | 1 | 1005.1 |
| 20260507011506 | 15 | 268 | 0.0 | 3.2 | 0.00 | 0.84 | 0.84 | 1 | 1005.3 |
| 20260507010058 | 15 | 185 | 0.0 | 1.6 | 0.00 | 0.84 | 0.84 | 1 | 1005.2 |
| 20260507004554 | 15 | 241 | 0.0 | 1.6 | 0.00 | 0.84 | 0.84 | 1 | 1005.3 |
| 20260507003049 | 15 | 199 | 0.0 | 1.6 | 0.00 | 0.84 | 0.84 | 1 | 1005.1 |
| 20260507001543 | 15 | 205 | 0.0 | 1.6 | 0.03 | 0.84 | 0.84 | 1 | 1005.1 |
| 20260507000039 | 15 | 167 | 0.0 | 0.0 | 0.03 | 0.84 | 0.84 | 1 | 1005.0 |
| 20260506234545 | 16 | 221 | 0.0 | 4.8 | 0.03 | 0.84 | 0.84 | 1 | 1004.9 |
| 20260506233031 | 16 | 190 | 0.0 | 1.6 | 0.03 | 0.84 | 0.84 | 1 | 1005.0 |
| 20260506231526 | 16 | 221 | 0.0 | 1.6 | 0.00 | 0.81 | 0.81 | 1 | 1005.1 |
| 20260506230022 | 16 | 221 | 0.0 | 1.6 | 0.05 | 0.81 | 0.81 | 1 | 1005.2 |
| 20260506224517 | 16 | 239 | 0.0 | 3.2 | 0.08 | 0.81 | 0.81 | 1 | 1005.4 |
| 20260506223017 | 16 | 244 | 0.0 | 1.6 | 0.13 | 0.81 | 0.81 | 1 | 1005.5 |
| 20260506221508 | 16 | 142 | 0.0 | 8.0 | 0.20 | 0.81 | 0.81 | 1 | 1005.5 |
| 20260506151539 | 21 | 234 | 3.2 | 11.3 | 0.00 | 0.00 | 0.00 | 57 | 1008.2 |
| 20260506150037 | 21 | 256 | 0.0 | 16.1 | 0.00 | 0.00 | 0.00 | 55 | 1008.6 |
| 20260506144540 | 21 | 186 | 1.6 | 11.3 | 0.00 | 0.00 | 0.00 | 56 | 1008.4 |
| 20260506143037 | 20 | 246 | 0.0 | 11.3 | 0.00 | 0.00 | 0.00 | 51 | 1008.3 |
| 20260506141532 | 20 | 239 | 1.6 | 24.1 | 0.00 | 0.00 | 0.00 | 52 | 1008.3 |
| 20260506140028 | 20 | 163 | 3.2 | 14.5 | 0.00 | 0.00 | 0.00 | 50 | 1008.4 |
| 20260506134526 | 19 | 129 | 0.0 | 8.0 | 0.00 | 0.00 | 0.00 | 47 | 1008.7 |
| 20260506133025 | 19 | 165 | 0.0 | 11.3 | 0.00 | 0.00 | 0.00 | 46 | 1008.8 |
| 20260506131531 | 19 | 184 | 1.6 | 9.7 | 0.00 | 0.00 | 0.00 | 47 | 1008.7 |
| 20260506130023 | 19 | 335 | 3.2 | 16.1 | 0.00 | 0.00 | 0.00 | 46 | 1008.8 |
| 20260506124521 | 18 | 228 | 0.0 | 9.7 | 0.00 | 0.00 | 0.00 | 41 | 1008.6 |
| 20260506123021 | 18 | 233 | 0.0 | 9.7 | 0.00 | 0.00 | 0.00 | 39 | 1008.9 |
| 20260506121519 | 17 | 245 | 0.0 | 1.6 | 0.00 | 0.00 | 0.00 | 32 | 1009.0 |
| 20260506120020 | 17 | 231 | 0.0 | 3.2 | 0.00 | 0.00 | 0.00 | 32 | 1009.2 |
| 20260506114517 | 17 | 135 | 0.0 | 3.2 | 0.00 | 0.00 | 0.00 | 30 | 1009.3 |
| 20260506113017 | 17 | 166 | 0.0 | 3.2 | 0.00 | 0.00 | 0.00 | 27 | 1009.4 |
| 20260506111514 | 17 | 233 | 0.0 | 1.6 | 0.00 | 0.00 | 0.00 | 26 | 1009.5 |
| 20260506110017 | 16 | 169 | 0.0 | 1.6 | 0.00 | 0.00 | 0.00 | 25 | 1009.5 |
| 20260506104512 | 16 | 263 | 0.0 | 1.6 | 0.00 | 0.00 | 0.00 | 26 | 1009.5 |
| 20260506103011 | 16 | 229 | 0.0 | 3.2 | 0.00 | 0.00 | 0.00 | 26 | 1009.6 |
| 20260506101521 | 16 | 238 | 0.0 | 3.2 | 0.00 | 0.00 | 0.00 | 27 | 1009.4 |
| 20260506100009 | 16 | 188 | 0.0 | 1.6 | 0.00 | 0.00 | 0.00 | 26 | 1009.4 |
| 20260506094519 | 16 | 182 | 0.0 | 3.2 | 0.00 | 0.00 | 0.00 | 28 | 1009.3 |
| 20260506093013 | 16 | 229 | 0.0 | 1.6 | 0.00 | 0.00 | 0.00 | 27 | 1009.4 |
| 20260506091504 | 16 | 168 | 0.0 | 0.0 | 0.00 | 0.00 | 0.00 | 29 | 1009.2 |
| 20260506090001 | 16 | 221 | 0.0 | 1.6 | 0.00 | 0.00 | 0.00 | 34 | 1009.1 |
| 20260506084623 | 16 | 184 | 0.0 | 1.6 | 0.00 | 0.00 | 0.00 | 41 | 1009.2 |
| 20260506083058 | 16 | 240 | 0.0 | 0.0 | 0.00 | 0.00 | 0.00 | 43 | 1009.1 |
| 20260506081557 | 16 | 231 | 0.0 | 1.6 | 0.00 | 0.00 | 0.00 | 46 | 1009.1 |
| 20260506073051 | 17 | 237 | 0.0 | 1.6 | 0.00 | 0.00 | 0.00 | 54 | 1008.7 |
| 20260506071547 | 17 | 252 | 0.0 | 1.6 | 0.00 | 0.00 | 0.00 | 55 | 1008.6 |